»·PEaware :: N742CH KSBA-KBUR

N742CH :: KSBA-KBUR

FLIGHT INFORMATION

Flight Status: Arrived
Operator: Privately registered:
United States
More flights under this callsign
Pilot: Cameron H. (32909)
Aircraft: CESSNA 172 SKYHAWK
(C172)
More flights by this aircraft type
Origin: KSBA Santa Barbara Mun
United States
Destination: KBUR Bob Hope-Burbank
United States
More flights between these airports :: More routes between these airports
Route:
File this flight plan on PilotEdge
Remarks:
Altitude:
(Current/Filed)
7,500ft
Speed:
(Current/Filed)
120kts
Departed: 09-Jan-21 03:14 PM
Arrived: 09-Jan-21 03:58 PM
Distance/Time
Traveled:
75nm/0:43
Distance/Time
To Go:
Arrived

Flight Plot

Page will automatically refresh every two minutes.


Map Options




Map Legend


Flown Route
Filed Route
Departure Airport
Arrival Airport
Navaid (VOR, NDB)
Fix

Horizontal Profiles

Position Reports

Time Latitude Longitude Heading Altitude Ground
Speed
09-Jan-21 14:56 34.432569 -119.835085 71 14ft 0kts
09-Jan-21 14:57 34.432569 -119.835085 71 14ft 0kts
09-Jan-21 14:58 34.432569 -119.835085 71 14ft 0kts
09-Jan-21 14:59 34.432569 -119.835085 71 14ft 0kts
09-Jan-21 15:00 34.432569 -119.835085 71 14ft 0kts
09-Jan-21 15:01 34.432569 -119.835085 71 14ft 0kts
09-Jan-21 15:02 34.432569 -119.835085 71 14ft 0kts
09-Jan-21 15:03 34.432569 -119.835085 71 14ft 0kts
09-Jan-21 15:04 34.432569 -119.835085 71 14ft 0kts
09-Jan-21 15:05 34.432569 -119.835085 71 14ft 0kts
09-Jan-21 15:06 34.432569 -119.835085 71 14ft 0kts
09-Jan-21 15:07 34.432583 -119.835058 24 14ft 0kts
09-Jan-21 15:08 34.432025 -119.835786 231 14ft 15kts
09-Jan-21 15:09 34.430985 -119.839379 262 14ft 0kts
09-Jan-21 15:10 34.430985 -119.839379 262 14ft 0kts
09-Jan-21 15:11 34.430859 -119.839638 243 14ft 0kts
09-Jan-21 15:12 34.430352 -119.840170 184 14ft 12kts
09-Jan-21 15:13 34.414484 -119.834432 159 706ft 74kts
09-Jan-21 15:14 34.393469 -119.824917 143 1590ft 92kts
09-Jan-21 15:15 34.381959 -119.796494 117 2490ft 91kts
09-Jan-21 15:16 34.367548 -119.770737 121 3424ft 85kts
09-Jan-21 15:17 34.352856 -119.746510 121 4261ft 87kts
09-Jan-21 15:18 34.348622 -119.719891 84 5026ft 84kts
09-Jan-21 15:19 34.348584 -119.689746 86 5759ft 85kts
09-Jan-21 15:20 34.347728 -119.660054 86 6414ft 87kts
09-Jan-21 15:21 34.346222 -119.630107 86 7015ft 89kts
09-Jan-21 15:22 34.344137 -119.599342 86 7507ft 98kts
09-Jan-21 15:23 34.341902 -119.563705 86 7510ft 107kts
09-Jan-21 15:24 34.339524 -119.528193 86 7507ft 102kts
09-Jan-21 15:25 34.336977 -119.494056 86 7505ft 101kts
09-Jan-21 15:26 34.334256 -119.459941 86 7503ft 101kts
09-Jan-21 15:27 34.331378 -119.425771 86 7509ft 101kts
09-Jan-21 15:28 34.329172 -119.391767 83 7516ft 101kts
09-Jan-21 15:30 34.327597 -119.357538 83 7514ft 102kts
09-Jan-21 15:31 34.325869 -119.322598 84 7513ft 103kts
09-Jan-21 15:32 34.323837 -119.287677 82 7511ft 103kts
09-Jan-21 15:33 34.322977 -119.252735 82 7511ft 103kts
09-Jan-21 15:34 34.322171 -119.216247 82 7513ft 114kts
09-Jan-21 15:35 34.321513 -119.177157 82 7514ft 116kts
09-Jan-21 15:36 34.327362 -119.140341 63 7515ft 111kts
09-Jan-21 15:37 34.335295 -119.103812 70 7516ft 113kts
09-Jan-21 15:38 34.340704 -119.065948 72 7518ft 113kts
09-Jan-21 15:39 34.344868 -119.027418 74 7516ft 116kts
09-Jan-21 15:40 34.348408 -118.987953 75 7526ft 118kts
09-Jan-21 15:40 34.351122 -118.955197 76 7544ft 117kts
09-Jan-21 15:42 34.354728 -118.909141 77 7544ft 117kts
09-Jan-21 15:43 34.346600 -118.869843 102 7546ft 125kts
09-Jan-21 15:44 34.335558 -118.829780 101 7547ft 125kts
09-Jan-21 15:44 34.326140 -118.796597 101 7548ft 125kts
09-Jan-21 15:45 34.314623 -118.756049 102 7546ft 126kts
09-Jan-21 15:47 34.301306 -118.709426 101 6933ft 125kts
09-Jan-21 15:47 34.291718 -118.675856 101 6500ft 126kts
09-Jan-21 15:48 34.279908 -118.634515 101 5809ft 128kts
09-Jan-21 15:49 34.268458 -118.594671 100 5541ft 103kts
09-Jan-21 15:50 34.258488 -118.559419 101 5506ft 115kts
09-Jan-21 15:51 34.246866 -118.519107 101 5008ft 115kts
09-Jan-21 15:52 34.238407 -118.481489 77 4312ft 114kts
09-Jan-21 15:53 34.222636 -118.445113 134 2640ft 117kts
09-Jan-21 15:54 34.203506 -118.417415 119 1828ft 100kts
09-Jan-21 15:55 34.198159 -118.391828 85 1294ft 69kts
09-Jan-21 15:56 34.197891 -118.368441 87 761ft 59kts
09-Jan-21 15:57 34.198555 -118.360276 353 717ft 0kts
09-Jan-21 15:58 34.199283 -118.360271 10 720ft 13kts

Navigation Log

Ident Type
Flight plan parsing failed, navigation log unavailable